createdAt,value
2022-10-05T00:01:01.052Z,7.34
2022-10-05T00:04:23.012Z,7.34
2022-10-05T00:07:26.108Z,7.39
2022-10-05T00:10:31.235Z,7.32
2022-10-05T00:13:34.286Z,7.27
2022-10-05T00:16:38.184Z,7.32
2022-10-05T00:19:41.525Z,7.22
2022-10-05T00:22:43.613Z,7.27
2022-10-05T00:25:47.304Z,7.29
2022-10-05T00:28:50.220Z,7.19
2022-10-05T00:31:52.951Z,7.14
2022-10-05T00:34:57.870Z,7.22
2022-10-05T00:38:01.213Z,7.21
2022-10-05T00:41:06.761Z,7.11
2022-10-05T00:44:20.918Z,7.01
2022-10-05T00:47:33.029Z,6.98
2022-10-05T00:50:54.002Z,6.94
2022-10-05T00:53:56.860Z,6.92
2022-10-05T00:57:02.509Z,6.86
2022-10-05T01:00:07.738Z,6.81
2022-10-05T01:03:10.632Z,6.88
2022-10-05T01:06:23.860Z,6.91
2022-10-05T01:09:43.654Z,6.94
2022-10-05T01:13:05.656Z,6.96
2022-10-05T01:16:15.960Z,6.90
2022-10-05T01:19:24.673Z,6.93
2022-10-05T01:22:46.008Z,6.90
2022-10-05T01:25:54.997Z,6.78
2022-10-05T01:29:03.145Z,6.75
2022-10-05T01:32:20.230Z,6.71
2022-10-05T01:35:58.548Z,6.78
2022-10-05T01:39:10.751Z,6.77
2022-10-05T01:42:21.332Z,6.66
2022-10-05T01:45:24.186Z,6.59
2022-10-05T01:48:40.110Z,6.58
2022-10-05T01:51:57.229Z,6.74
2022-10-05T01:55:18.429Z,6.69
2022-10-05T01:58:46.115Z,6.74
2022-10-05T02:01:57.853Z,6.72
2022-10-05T02:05:05.373Z,6.59
2022-10-05T02:08:10.044Z,6.55
2022-10-05T02:11:13.890Z,6.54
2022-10-05T02:14:23.693Z,6.53
2022-10-05T02:17:30.214Z,6.45
2022-10-05T02:20:35.477Z,6.40
2022-10-05T02:23:40.754Z,6.40
2022-10-05T02:26:43.980Z,6.46
2022-10-05T02:29:49.246Z,6.42
2022-10-05T02:32:54.593Z,6.30
2022-10-05T02:36:02.705Z,6.26
2022-10-05T02:39:22.377Z,6.30
2022-10-05T02:42:28.357Z,6.25
2022-10-05T02:45:40.985Z,6.32
2022-10-05T02:48:44.244Z,6.31
2022-10-05T02:51:55.451Z,6.30
2022-10-05T02:55:01.770Z,6.29
2022-10-05T02:58:26.208Z,6.36
2022-10-05T03:01:33.231Z,6.29
2022-10-05T03:04:41.887Z,6.18
2022-10-05T03:07:52.384Z,6.15
2022-10-05T03:10:58.338Z,6.21
2022-10-05T03:14:19.081Z,6.25
2022-10-05T03:17:23.331Z,6.23
2022-10-05T03:20:44.975Z,6.32
2022-10-05T03:24:11.195Z,6.33
2022-10-05T03:27:29.907Z,6.19
2022-10-05T03:30:37.263Z,6.13
2022-10-05T03:33:39.889Z,6.13
2022-10-05T03:37:00.003Z,6.09
2022-10-05T03:40:05.629Z,6.04
2022-10-05T03:43:17.572Z,6.02
2022-10-05T03:46:34.002Z,5.97
2022-10-05T03:50:05.320Z,5.99
2022-10-05T03:53:23.070Z,5.96
2022-10-05T03:56:33.727Z,5.90
2022-10-05T03:59:52.053Z,5.89
2022-10-05T04:03:13.994Z,5.86
2022-10-05T04:06:37.084Z,5.91
2022-10-05T04:09:45.901Z,5.89
2022-10-05T04:12:55.842Z,5.92
2022-10-05T04:16:02.883Z,6.00
2022-10-05T04:19:16.973Z,6.20
2022-10-05T04:22:25.890Z,6.20
2022-10-05T04:25:36.253Z,6.16
2022-10-05T04:28:47.703Z,6.18
2022-10-05T04:31:55.545Z,6.27
2022-10-05T04:35:18.107Z,6.43
2022-10-05T04:38:36.025Z,6.48
2022-10-05T04:41:49.390Z,6.45
2022-10-05T04:45:01.456Z,6.49
2022-10-05T04:48:03.900Z,6.41
2022-10-05T04:51:19.589Z,6.30
2022-10-05T04:54:54.587Z,6.29
2022-10-05T04:58:01.060Z,6.42
2022-10-05T05:01:23.662Z,6.38
2022-10-05T05:04:51.490Z,6.27
2022-10-05T05:08:13.275Z,6.24
2022-10-05T05:11:24.534Z,6.28
2022-10-05T05:14:45.943Z,6.37
2022-10-05T05:17:51.728Z,6.26
2022-10-05T05:21:09.157Z,6.26
2022-10-05T05:24:30.266Z,6.32
2022-10-05T05:27:52.101Z,6.56
2022-10-05T05:31:21.290Z,6.66
2022-10-05T05:34:47.627Z,6.65
2022-10-05T05:38:09.459Z,6.62
2022-10-05T05:41:24.226Z,6.66
2022-10-05T05:44:28.985Z,6.82
2022-10-05T05:47:38.437Z,6.92
2022-10-05T05:50:49.592Z,6.99
2022-10-05T05:53:56.174Z,7.08
2022-10-05T05:56:59.050Z,7.20
2022-10-05T06:00:18.732Z,7.40
2022-10-05T06:03:36.271Z,7.52
2022-10-05T06:06:42.150Z,7.63
2022-10-05T06:09:55.058Z,7.71
2022-10-05T06:13:01.947Z,7.92
2022-10-05T06:16:23.825Z,8.13
2022-10-05T06:19:28.596Z,8.36
2022-10-05T06:22:35.186Z,8.48
2022-10-05T06:25:45.398Z,8.74
2022-10-05T06:28:55.155Z,9.12
2022-10-05T06:32:07.316Z,9.22
2022-10-05T06:35:18.281Z,9.37
2022-10-05T06:38:39.747Z,9.57
2022-10-05T06:41:51.817Z,9.71
2022-10-05T06:45:12.480Z,9.72
2022-10-05T06:48:38.952Z,9.68
2022-10-05T06:52:00.314Z,9.78
2022-10-05T06:55:17.603Z,9.92
2022-10-05T06:58:42.042Z,10.18
2022-10-05T07:01:51.844Z,10.36
2022-10-05T07:05:01.887Z,10.64
2022-10-05T07:08:11.446Z,10.85
2022-10-05T07:11:19.669Z,10.87
2022-10-05T07:14:23.167Z,11.06
2022-10-05T07:17:28.204Z,11.22
2022-10-05T07:20:33.563Z,11.41
2022-10-05T07:23:36.366Z,11.49
2022-10-05T07:26:46.849Z,11.43
2022-10-05T07:30:05.020Z,11.38
2022-10-05T07:33:29.571Z,11.60
2022-10-05T07:36:59.716Z,11.83
2022-10-05T07:40:21.305Z,12.05
2022-10-05T07:43:32.084Z,12.28
2022-10-05T07:46:44.984Z,12.50
2022-10-05T07:49:54.232Z,12.61
2022-10-05T07:52:58.759Z,12.72
2022-10-05T07:56:04.013Z,12.70
2022-10-05T07:59:12.825Z,12.91
2022-10-05T08:02:15.480Z,12.95
2022-10-05T08:05:30.380Z,12.95
2022-10-05T08:08:45.927Z,13.12
2022-10-05T08:11:57.469Z,13.25
2022-10-05T08:15:17.975Z,13.34
2022-10-05T08:18:27.119Z,13.33
2022-10-05T08:21:35.812Z,13.35
2022-10-05T08:24:48.316Z,13.44
2022-10-05T08:27:53.808Z,13.58
2022-10-05T08:31:00.813Z,13.69
2022-10-05T08:34:22.543Z,13.87
2022-10-05T08:37:37.939Z,13.94
2022-10-05T08:40:46.631Z,14.19
2022-10-05T08:44:08.151Z,14.41
2022-10-05T08:47:17.775Z,14.41
2022-10-05T08:50:39.776Z,14.56
2022-10-05T08:54:01.772Z,14.74
2022-10-05T08:57:13.652Z,14.54
2022-10-05T09:00:21.386Z,14.67
2022-10-05T09:03:35.104Z,14.65
2022-10-05T09:06:56.736Z,14.48
2022-10-05T09:10:25.844Z,14.32
2022-10-05T09:13:41.409Z,14.64
2022-10-05T09:16:43.785Z,14.90
2022-10-05T09:19:50.094Z,15.08
2022-10-05T09:22:59.227Z,15.30
2022-10-05T09:26:24.515Z,15.53
2022-10-05T09:29:31.935Z,15.64
2022-10-05T09:32:43.904Z,15.80
2022-10-05T09:35:50.586Z,15.70
2022-10-05T09:39:17.771Z,15.94
2022-10-05T09:42:24.753Z,16.08
2022-10-05T09:45:43.564Z,16.28
2022-10-05T09:48:51.979Z,16.68
2022-10-05T09:52:07.093Z,17.00
2022-10-05T09:55:28.740Z,17.07
2022-10-05T09:58:46.653Z,17.10
2022-10-05T10:02:25.605Z,16.98
2022-10-05T10:05:31.903Z,16.91
2022-10-05T10:08:43.598Z,16.72
2022-10-05T10:12:09.675Z,16.56
2022-10-05T10:15:12.512Z,16.73
2022-10-05T10:18:23.028Z,16.61
2022-10-05T10:21:44.619Z,16.73
2022-10-05T10:25:05.690Z,16.90
2022-10-05T10:28:28.109Z,17.07
2022-10-05T10:31:31.358Z,17.19
2022-10-05T10:34:49.115Z,17.43
2022-10-05T10:38:10.790Z,17.50
2022-10-05T10:41:39.846Z,17.45
2022-10-05T10:45:01.031Z,17.58
2022-10-05T10:48:24.314Z,17.50
2022-10-05T10:51:44.467Z,17.47
2022-10-05T10:55:06.094Z,17.39
2022-10-05T10:58:27.925Z,17.33
2022-10-05T11:01:35.013Z,17.43
2022-10-05T11:04:54.926Z,17.64
2022-10-05T11:07:58.455Z,17.41
2022-10-05T11:11:06.734Z,17.34
2022-10-05T11:14:28.291Z,17.52
2022-10-05T11:17:37.079Z,17.59
2022-10-05T11:20:45.974Z,17.52
2022-10-05T11:23:55.982Z,17.64
2022-10-05T11:27:11.453Z,17.60
2022-10-05T11:30:16.399Z,17.54
2022-10-05T11:33:33.959Z,17.62
2022-10-05T11:36:51.238Z,17.80
2022-10-05T11:40:12.815Z,17.86
2022-10-05T11:43:15.644Z,17.72
2022-10-05T11:46:18.473Z,17.88
2022-10-05T11:49:38.527Z,17.89
2022-10-05T11:52:47.450Z,17.96
2022-10-05T11:56:01.616Z,17.87
2022-10-05T11:59:03.841Z,17.75
2022-10-05T12:02:14.625Z,18.00
2022-10-05T12:05:25.593Z,18.29
2022-10-05T12:08:30.944Z,18.59
2022-10-05T12:11:57.901Z,18.66
2022-10-05T12:15:24.026Z,18.57
2022-10-05T12:18:33.306Z,18.54
2022-10-05T12:21:42.027Z,18.52
2022-10-05T12:25:06.778Z,18.65
2022-10-05T12:28:11.222Z,18.61
2022-10-05T12:31:22.620Z,18.68
2022-10-05T12:34:51.617Z,18.74
2022-10-05T12:37:59.341Z,18.70
2022-10-05T12:41:07.216Z,18.77
2022-10-05T12:44:28.357Z,18.83
2022-10-05T12:47:39.608Z,18.75
2022-10-05T12:50:56.065Z,18.61
2022-10-05T12:54:19.730Z,18.58
2022-10-05T12:57:50.168Z,18.64
2022-10-05T13:01:16.407Z,18.55
2022-10-05T13:04:44.865Z,18.54
2022-10-05T13:08:06.347Z,18.64
2022-10-05T13:11:25.241Z,18.68
2022-10-05T13:14:34.411Z,18.67
2022-10-05T13:18:03.379Z,18.38
2022-10-05T13:21:28.725Z,18.22
2022-10-05T13:24:35.096Z,18.05
2022-10-05T13:27:41.322Z,18.10
2022-10-05T13:30:58.216Z,18.12
2022-10-05T13:34:08.235Z,18.22
2022-10-05T13:37:18.414Z,18.26
2022-10-05T13:40:30.270Z,18.35
2022-10-05T13:43:33.726Z,18.40
2022-10-05T13:46:43.254Z,18.39
2022-10-05T13:49:51.674Z,18.24
2022-10-05T13:53:08.766Z,18.16
2022-10-05T13:56:34.643Z,18.09
2022-10-05T13:59:46.128Z,17.98
2022-10-05T14:02:51.053Z,17.99
2022-10-05T14:05:58.553Z,17.98
2022-10-05T14:09:01.819Z,17.95
2022-10-05T14:12:04.939Z,18.00
2022-10-05T14:15:26.026Z,17.97
2022-10-05T14:18:31.039Z,17.79
2022-10-05T14:21:43.513Z,17.78
2022-10-05T14:24:52.436Z,17.85
2022-10-05T14:28:24.379Z,17.69
2022-10-05T14:31:32.077Z,17.75
2022-10-05T14:34:35.599Z,17.73
2022-10-05T14:37:47.605Z,17.78
2022-10-05T14:41:14.215Z,17.76
2022-10-05T14:44:23.438Z,17.65
2022-10-05T14:47:28.412Z,17.58
2022-10-05T14:50:31.679Z,17.50
2022-10-05T14:53:38.723Z,17.38
2022-10-05T14:56:43.433Z,17.31
2022-10-05T15:00:00.665Z,17.30
2022-10-05T15:03:36.413Z,17.21
2022-10-05T15:06:38.911Z,17.18
2022-10-05T15:09:51.011Z,17.07
2022-10-05T15:12:56.719Z,17.01
2022-10-05T15:16:12.448Z,16.92
2022-10-05T15:19:24.567Z,16.82
2022-10-05T15:22:32.974Z,16.76
2022-10-05T15:25:41.110Z,16.68
2022-10-05T15:28:48.888Z,16.62
2022-10-05T15:32:15.128Z,16.43
2022-10-05T15:35:39.230Z,16.28
2022-10-05T15:38:51.870Z,16.28
2022-10-05T15:42:16.208Z,16.25
2022-10-05T15:45:25.164Z,16.16
2022-10-05T15:48:39.493Z,16.13
2022-10-05T15:51:50.277Z,16.03
2022-10-05T15:55:08.114Z,15.89
2022-10-05T15:58:10.904Z,15.78
2022-10-05T16:01:20.368Z,15.72
2022-10-05T16:04:39.414Z,15.66
2022-10-05T16:08:08.519Z,15.59
2022-10-05T16:11:19.053Z,15.59
2022-10-05T16:14:28.530Z,15.56
2022-10-05T16:17:35.618Z,15.48
2022-10-05T16:20:46.684Z,15.35
2022-10-05T16:23:58.070Z,15.23
2022-10-05T16:27:04.357Z,15.09
2022-10-05T16:30:10.936Z,14.95
2022-10-05T16:33:28.138Z,14.82
2022-10-05T16:36:49.368Z,14.69
2022-10-05T16:40:04.213Z,14.59
2022-10-05T16:43:15.962Z,14.48
2022-10-05T16:46:28.659Z,14.38
2022-10-05T16:49:44.043Z,14.29
2022-10-05T16:52:48.381Z,14.27
2022-10-05T16:56:03.417Z,14.13
2022-10-05T16:59:05.920Z,14.13
2022-10-05T17:02:24.240Z,14.00
2022-10-05T17:05:26.855Z,13.97
2022-10-05T17:08:48.046Z,13.86
2022-10-05T17:11:59.726Z,13.81
2022-10-05T17:15:11.078Z,13.72
2022-10-05T17:18:24.026Z,13.62
2022-10-05T17:21:38.922Z,13.56
2022-10-05T17:25:01.801Z,13.51
2022-10-05T17:28:22.688Z,13.46
2022-10-05T17:31:28.426Z,13.36
2022-10-05T17:34:36.491Z,13.28
2022-10-05T17:37:41.028Z,13.23
2022-10-05T17:41:13.113Z,13.16
2022-10-05T17:44:20.893Z,13.16
2022-10-05T17:47:49.801Z,13.07
2022-10-05T17:51:11.215Z,12.98
2022-10-05T17:54:39.096Z,12.88
2022-10-05T17:57:42.967Z,12.80
2022-10-05T18:00:57.079Z,12.74
2022-10-05T18:04:31.242Z,12.81
2022-10-05T18:07:35.911Z,12.63
2022-10-05T18:10:42.445Z,12.51
2022-10-05T18:13:50.425Z,12.43
2022-10-05T18:17:04.545Z,12.34
2022-10-05T18:20:27.207Z,12.29
2022-10-05T18:23:36.415Z,12.19
2022-10-05T18:26:47.563Z,12.23
2022-10-05T18:30:15.858Z,12.10
2022-10-05T18:33:28.419Z,12.06
2022-10-05T18:36:37.726Z,12.02
2022-10-05T18:39:47.062Z,12.03
2022-10-05T18:43:02.976Z,11.90
2022-10-05T18:46:30.776Z,11.90
2022-10-05T18:49:33.963Z,11.86
2022-10-05T18:52:55.521Z,11.78
2022-10-05T18:56:04.281Z,11.72
2022-10-05T18:59:24.841Z,11.70
2022-10-05T19:02:45.782Z,11.58
2022-10-05T19:05:54.867Z,11.59
2022-10-05T19:09:03.484Z,11.61
2022-10-05T19:12:30.661Z,11.50
2022-10-05T19:16:05.803Z,11.44
2022-10-05T19:19:10.982Z,11.37
2022-10-05T19:22:19.652Z,11.32
2022-10-05T19:25:24.835Z,11.32
2022-10-05T19:28:37.638Z,11.29
2022-10-05T19:31:48.525Z,11.22
2022-10-05T19:35:11.676Z,11.16
2022-10-05T19:38:28.117Z,11.08
2022-10-05T19:41:40.834Z,10.98
2022-10-05T19:44:58.098Z,10.96
2022-10-05T19:48:03.060Z,10.96
2022-10-05T19:51:11.198Z,10.92
2022-10-05T19:54:21.995Z,10.87
2022-10-05T19:57:29.172Z,10.90
2022-10-05T20:00:39.638Z,10.90
2022-10-05T20:03:49.010Z,10.83
2022-10-05T20:06:55.380Z,10.79
2022-10-05T20:09:58.781Z,10.86
2022-10-05T20:13:08.663Z,10.85
2022-10-05T20:16:37.795Z,10.77
2022-10-05T20:20:02.609Z,10.77
2022-10-05T20:23:25.681Z,10.68
2022-10-05T20:26:56.595Z,10.63
2022-10-05T20:29:59.094Z,10.61
2022-10-05T20:33:01.810Z,10.62
2022-10-05T20:36:08.354Z,10.61
2022-10-05T20:39:10.941Z,10.62
2022-10-05T20:42:14.436Z,10.60
2022-10-05T20:45:19.782Z,10.65
2022-10-05T20:48:26.174Z,10.58
2022-10-05T20:51:29.377Z,10.53
2022-10-05T20:54:32.327Z,10.48
2022-10-05T20:57:34.645Z,10.51
2022-10-05T21:00:55.464Z,10.47
2022-10-05T21:03:58.531Z,10.48
2022-10-05T21:07:03.150Z,10.36
2022-10-05T21:10:05.499Z,10.33
2022-10-05T21:13:07.898Z,10.34
2022-10-05T21:16:13.096Z,10.29
2022-10-05T21:19:15.488Z,10.22
2022-10-05T21:22:18.380Z,10.15
2022-10-05T21:25:20.356Z,10.12
2022-10-05T21:28:23.371Z,10.07
2022-10-05T21:31:27.042Z,10.02
2022-10-05T21:34:29.557Z,10.05
2022-10-05T21:37:35.893Z,9.98
2022-10-05T21:40:38.800Z,9.94
2022-10-05T21:43:43.210Z,9.92
2022-10-05T21:46:49.517Z,9.92
2022-10-05T21:49:51.770Z,9.86
2022-10-05T21:52:54.938Z,9.93
2022-10-05T21:56:02.124Z,9.95
2022-10-05T21:59:06.787Z,9.87
2022-10-05T22:02:13.275Z,9.78
2022-10-05T22:05:18.371Z,9.67
2022-10-05T22:08:27.586Z,9.66
2022-10-05T22:11:33.295Z,9.67
2022-10-05T22:14:35.757Z,9.75
2022-10-05T22:17:39.418Z,9.69
2022-10-05T22:20:41.871Z,9.58
2022-10-05T22:23:48.442Z,9.52
2022-10-05T22:26:53.903Z,9.48
2022-10-05T22:29:59.672Z,9.50
2022-10-05T22:33:03.146Z,9.55
2022-10-05T22:36:07.463Z,9.58
2022-10-05T22:39:12.708Z,9.52
2022-10-05T22:42:16.313Z,9.49
2022-10-05T22:45:22.993Z,9.50
2022-10-05T22:48:27.073Z,9.48
2022-10-05T22:51:32.074Z,9.49
2022-10-05T22:54:37.205Z,9.53
2022-10-05T22:57:40.184Z,9.51
2022-10-05T23:00:59.187Z,9.51
2022-10-05T23:04:04.292Z,9.58
2022-10-05T23:07:07.170Z,9.62
2022-10-05T23:10:13.231Z,9.56
2022-10-05T23:13:15.486Z,9.58
2022-10-05T23:16:19.772Z,9.60
2022-10-05T23:19:23.740Z,9.64
2022-10-05T23:22:34.193Z,9.57
2022-10-05T23:25:35.974Z,9.58
2022-10-05T23:28:46.951Z,9.59
2022-10-05T23:31:49.353Z,9.58
2022-10-05T23:34:51.352Z,9.55
2022-10-05T23:38:00.452Z,9.55
2022-10-05T23:41:03.619Z,9.52
2022-10-05T23:44:08.176Z,9.54
2022-10-05T23:47:10.486Z,9.57
2022-10-05T23:50:19.977Z,9.55
2022-10-05T23:53:23.930Z,9.62
2022-10-05T23:56:26.123Z,9.63
2022-10-05T23:59:30.531Z,9.71
